sensor_id;sensor_type;location;lat;lon;timestamp;P1;durP1;ratioP1;P2;durP2;ratioP2
16133;SDS011;8172;45.018;5.972;2022-11-20T00:04:56;6.80;;;4.87;;
16133;SDS011;8172;45.018;5.972;2022-11-20T00:10:03;19.37;;;5.23;;
16133;SDS011;8172;45.018;5.972;2022-11-20T00:15:10;44.93;;;5.73;;
16133;SDS011;8172;45.018;5.972;2022-11-20T00:20:18;8.23;;;4.57;;
16133;SDS011;8172;45.018;5.972;2022-11-20T00:25:25;140.67;;;9.27;;
16133;SDS011;8172;45.018;5.972;2022-11-20T00:30:32;42.73;;;5.33;;
16133;SDS011;8172;45.018;5.972;2022-11-20T00:35:39;10.40;;;4.17;;
16133;SDS011;8172;45.018;5.972;2022-11-20T00:40:46;14.70;;;4.77;;
16133;SDS011;8172;45.018;5.972;2022-11-20T00:45:58;15.30;;;4.50;;
16133;SDS011;8172;45.018;5.972;2022-11-20T00:51:05;17.60;;;4.57;;
16133;SDS011;8172;45.018;5.972;2022-11-20T00:56:14;5.10;;;4.30;;
16133;SDS011;8172;45.018;5.972;2022-11-20T01:01:23;4.77;;;3.70;;
16133;SDS011;8172;45.018;5.972;2022-11-20T01:06:34;5.20;;;4.23;;
16133;SDS011;8172;45.018;5.972;2022-11-20T01:11:42;4.80;;;3.90;;
16133;SDS011;8172;45.018;5.972;2022-11-20T01:16:50;4.67;;;3.77;;
16133;SDS011;8172;45.018;5.972;2022-11-20T01:21:58;4.70;;;4.20;;
16133;SDS011;8172;45.018;5.972;2022-11-20T01:27:05;4.60;;;4.10;;
16133;SDS011;8172;45.018;5.972;2022-11-20T01:32:12;3.90;;;3.40;;
16133;SDS011;8172;45.018;5.972;2022-11-20T01:37:19;4.60;;;4.13;;
16133;SDS011;8172;45.018;5.972;2022-11-20T01:42:26;6.37;;;3.93;;
16133;SDS011;8172;45.018;5.972;2022-11-20T01:47:36;3.90;;;3.50;;
16133;SDS011;8172;45.018;5.972;2022-11-20T01:52:46;5.10;;;3.53;;
16133;SDS011;8172;45.018;5.972;2022-11-20T01:57:54;5.60;;;4.27;;
16133;SDS011;8172;45.018;5.972;2022-11-20T02:03:04;4.40;;;4.00;;
16133;SDS011;8172;45.018;5.972;2022-11-20T02:08:12;5.73;;;3.57;;
16133;SDS011;8172;45.018;5.972;2022-11-20T02:13:19;5.90;;;3.50;;
16133;SDS011;8172;45.018;5.972;2022-11-20T02:18:29;17.80;;;5.10;;
16133;SDS011;8172;45.018;5.972;2022-11-20T02:23:39;4.67;;;4.17;;
16133;SDS011;8172;45.018;5.972;2022-11-20T02:28:46;8.03;;;4.07;;
16133;SDS011;8172;45.018;5.972;2022-11-20T02:33:54;4.47;;;3.90;;
16133;SDS011;8172;45.018;5.972;2022-11-20T02:39:03;25.63;;;4.90;;
16133;SDS011;8172;45.018;5.972;2022-11-20T02:44:11;4.80;;;3.80;;
16133;SDS011;8172;45.018;5.972;2022-11-20T02:49:18;13.43;;;4.00;;
16133;SDS011;8172;45.018;5.972;2022-11-20T02:54:26;4.90;;;4.20;;
16133;SDS011;8172;45.018;5.972;2022-11-20T02:59:33;4.30;;;3.90;;
16133;SDS011;8172;45.018;5.972;2022-11-20T03:04:40;3.90;;;3.50;;
16133;SDS011;8172;45.018;5.972;2022-11-20T03:09:50;4.27;;;3.87;;
16133;SDS011;8172;45.018;5.972;2022-11-20T03:14:57;3.20;;;2.90;;
16133;SDS011;8172;45.018;5.972;2022-11-20T03:20:07;3.80;;;3.23;;
16133;SDS011;8172;45.018;5.972;2022-11-20T03:25:14;6.03;;;3.93;;
16133;SDS011;8172;45.018;5.972;2022-11-20T03:30:21;6.30;;;3.60;;
16133;SDS011;8172;45.018;5.972;2022-11-20T03:35:30;4.07;;;3.37;;
16133;SDS011;8172;45.018;5.972;2022-11-20T03:40:37;3.33;;;2.60;;
16133;SDS011;8172;45.018;5.972;2022-11-20T03:45:44;3.43;;;3.00;;
16133;SDS011;8172;45.018;5.972;2022-11-20T03:50:51;3.50;;;3.20;;
16133;SDS011;8172;45.018;5.972;2022-11-20T03:56:02;3.57;;;3.27;;
16133;SDS011;8172;45.018;5.972;2022-11-20T04:06:20;5.27;;;3.03;;
16133;SDS011;8172;45.018;5.972;2022-11-20T04:11:29;3.53;;;3.00;;
16133;SDS011;8172;45.018;5.972;2022-11-20T04:16:38;3.10;;;2.80;;
16133;SDS011;8172;45.018;5.972;2022-11-20T04:21:45;2.77;;;2.23;;
16133;SDS011;8172;45.018;5.972;2022-11-20T04:26:52;2.20;;;2.00;;
16133;SDS011;8172;45.018;5.972;2022-11-20T04:31:59;3.33;;;2.50;;
16133;SDS011;8172;45.018;5.972;2022-11-20T04:37:06;3.43;;;2.70;;
16133;SDS011;8172;45.018;5.972;2022-11-20T04:42:13;3.20;;;2.90;;
16133;SDS011;8172;45.018;5.972;2022-11-20T04:47:22;2.47;;;2.20;;
16133;SDS011;8172;45.018;5.972;2022-11-20T04:52:29;2.63;;;2.13;;
16133;SDS011;8172;45.018;5.972;2022-11-20T04:57:36;2.97;;;2.10;;
16133;SDS011;8172;45.018;5.972;2022-11-20T05:02:43;3.23;;;2.30;;
16133;SDS011;8172;45.018;5.972;2022-11-20T05:07:50;3.13;;;2.20;;
16133;SDS011;8172;45.018;5.972;2022-11-20T05:12:57;3.00;;;2.13;;
16133;SDS011;8172;45.018;5.972;2022-11-20T05:18:04;2.60;;;2.07;;
16133;SDS011;8172;45.018;5.972;2022-11-20T05:23:12;3.70;;;2.57;;
16133;SDS011;8172;45.018;5.972;2022-11-20T05:28:19;2.83;;;2.40;;
16133;SDS011;8172;45.018;5.972;2022-11-20T05:33:26;3.97;;;2.63;;
16133;SDS011;8172;45.018;5.972;2022-11-20T05:38:33;3.80;;;2.20;;
16133;SDS011;8172;45.018;5.972;2022-11-20T05:43:41;3.60;;;2.37;;
16133;SDS011;8172;45.018;5.972;2022-11-20T05:48:49;5.33;;;2.73;;
16133;SDS011;8172;45.018;5.972;2022-11-20T05:54:02;3.87;;;2.47;;
16133;SDS011;8172;45.018;5.972;2022-11-20T05:59:09;2.90;;;2.33;;
16133;SDS011;8172;45.018;5.972;2022-11-20T06:04:16;3.60;;;2.20;;
16133;SDS011;8172;45.018;5.972;2022-11-20T06:09:23;2.63;;;2.20;;
16133;SDS011;8172;45.018;5.972;2022-11-20T06:14:30;2.37;;;2.00;;
16133;SDS011;8172;45.018;5.972;2022-11-20T06:19:38;2.20;;;1.97;;
16133;SDS011;8172;45.018;5.972;2022-11-20T06:24:45;2.90;;;2.10;;
16133;SDS011;8172;45.018;5.972;2022-11-20T06:29:52;3.80;;;1.90;;
16133;SDS011;8172;45.018;5.972;2022-11-20T06:34:59;2.57;;;1.90;;
16133;SDS011;8172;45.018;5.972;2022-11-20T06:40:06;3.03;;;1.80;;
16133;SDS011;8172;45.018;5.972;2022-11-20T06:45:13;1.80;;;1.50;;
16133;SDS011;8172;45.018;5.972;2022-11-20T06:50:20;2.00;;;1.70;;
16133;SDS011;8172;45.018;5.972;2022-11-20T06:55:27;3.70;;;1.70;;
16133;SDS011;8172;45.018;5.972;2022-11-20T07:00:35;1.80;;;1.60;;
16133;SDS011;8172;45.018;5.972;2022-11-20T07:05:42;1.60;;;1.20;;
16133;SDS011;8172;45.018;5.972;2022-11-20T07:10:50;1.80;;;1.20;;
16133;SDS011;8172;45.018;5.972;2022-11-20T07:15:59;2.07;;;1.53;;
16133;SDS011;8172;45.018;5.972;2022-11-20T07:21:08;2.27;;;1.63;;
16133;SDS011;8172;45.018;5.972;2022-11-20T07:26:16;2.37;;;1.40;;
16133;SDS011;8172;45.018;5.972;2022-11-20T07:31:24;1.60;;;1.33;;
16133;SDS011;8172;45.018;5.972;2022-11-20T07:36:31;2.33;;;1.50;;
16133;SDS011;8172;45.018;5.972;2022-11-20T07:41:38;1.77;;;1.50;;
16133;SDS011;8172;45.018;5.972;2022-11-20T07:46:45;2.13;;;1.50;;
16133;SDS011;8172;45.018;5.972;2022-11-20T07:51:52;2.43;;;1.30;;
16133;SDS011;8172;45.018;5.972;2022-11-20T07:57:01;1.40;;;1.07;;
16133;SDS011;8172;45.018;5.972;2022-11-20T08:02:09;1.10;;;1.00;;
16133;SDS011;8172;45.018;5.972;2022-11-20T08:07:16;2.37;;;0.90;;
16133;SDS011;8172;45.018;5.972;2022-11-20T08:12:23;1.20;;;1.00;;
16133;SDS011;8172;45.018;5.972;2022-11-20T08:17:32;1.03;;;0.90;;
16133;SDS011;8172;45.018;5.972;2022-11-20T08:22:39;1.30;;;0.93;;
16133;SDS011;8172;45.018;5.972;2022-11-20T08:27:46;1.10;;;0.93;;
16133;SDS011;8172;45.018;5.972;2022-11-20T08:32:53;1.10;;;1.00;;
16133;SDS011;8172;45.018;5.972;2022-11-20T08:38:00;1.97;;;1.00;;
16133;SDS011;8172;45.018;5.972;2022-11-20T08:43:08;1.30;;;0.90;;
16133;SDS011;8172;45.018;5.972;2022-11-20T08:48:15;1.13;;;0.80;;
16133;SDS011;8172;45.018;5.972;2022-11-20T08:53:22;1.43;;;0.80;;
16133;SDS011;8172;45.018;5.972;2022-11-20T08:58:29;0.90;;;0.80;;
16133;SDS011;8172;45.018;5.972;2022-11-20T09:03:37;1.33;;;0.80;;
16133;SDS011;8172;45.018;5.972;2022-11-20T09:08:44;0.60;;;0.60;;
16133;SDS011;8172;45.018;5.972;2022-11-20T09:13:51;1.07;;;0.80;;
16133;SDS011;8172;45.018;5.972;2022-11-20T09:18:58;1.77;;;0.80;;
16133;SDS011;8172;45.018;5.972;2022-11-20T09:24:07;0.80;;;0.80;;
16133;SDS011;8172;45.018;5.972;2022-11-20T09:29:14;1.30;;;0.90;;
16133;SDS011;8172;45.018;5.972;2022-11-20T09:34:21;1.10;;;0.90;;
16133;SDS011;8172;45.018;5.972;2022-11-20T09:39:28;0.80;;;0.80;;
16133;SDS011;8172;45.018;5.972;2022-11-20T09:54:55;0.90;;;0.70;;
16133;SDS011;8172;45.018;5.972;2022-11-20T10:00:04;0.80;;;0.80;;
16133;SDS011;8172;45.018;5.972;2022-11-20T10:05:21;0.80;;;0.70;;
16133;SDS011;8172;45.018;5.972;2022-11-20T10:15:41;1.83;;;0.80;;
16133;SDS011;8172;45.018;5.972;2022-11-20T10:20:46;2.30;;;0.90;;
16133;SDS011;8172;45.018;5.972;2022-11-20T10:31:07;2.67;;;1.80;;
16133;SDS011;8172;45.018;5.972;2022-11-20T10:41:23;8.43;;;5.43;;
16133;SDS011;8172;45.018;5.972;2022-11-20T10:46:36;1.50;;;1.33;;
16133;SDS011;8172;45.018;5.972;2022-11-20T10:56:55;2.37;;;1.77;;
16133;SDS011;8172;45.018;5.972;2022-11-20T11:12:25;2.20;;;1.90;;
16133;SDS011;8172;45.018;5.972;2022-11-20T11:17:34;3.47;;;2.00;;
16133;SDS011;8172;45.018;5.972;2022-11-20T11:22:46;1.93;;;1.70;;
16133;SDS011;8172;45.018;5.972;2022-11-20T11:27:51;2.43;;;1.60;;
16133;SDS011;8172;45.018;5.972;2022-11-20T11:33:03;2.30;;;1.83;;
16133;SDS011;8172;45.018;5.972;2022-11-20T11:38:12;3.30;;;1.90;;
16133;SDS011;8172;45.018;5.972;2022-11-20T11:43:23;3.07;;;2.17;;
16133;SDS011;8172;45.018;5.972;2022-11-20T11:48:34;2.40;;;1.93;;
16133;SDS011;8172;45.018;5.972;2022-11-20T11:53:41;2.33;;;1.70;;
16133;SDS011;8172;45.018;5.972;2022-11-20T11:58:50;2.10;;;1.60;;
16133;SDS011;8172;45.018;5.972;2022-11-20T12:09:09;2.70;;;2.10;;
16133;SDS011;8172;45.018;5.972;2022-11-20T12:19:30;3.60;;;2.10;;
16133;SDS011;8172;45.018;5.972;2022-11-20T12:45:23;1.87;;;1.50;;
16133;SDS011;8172;45.018;5.972;2022-11-20T13:00:47;2.87;;;2.10;;
16133;SDS011;8172;45.018;5.972;2022-11-20T13:05:58;2.83;;;1.90;;
16133;SDS011;8172;45.018;5.972;2022-11-20T13:16:17;2.50;;;1.77;;
16133;SDS011;8172;45.018;5.972;2022-11-20T13:21:22;3.77;;;2.00;;
16133;SDS011;8172;45.018;5.972;2022-11-20T13:26:32;2.47;;;1.60;;
16133;SDS011;8172;45.018;5.972;2022-11-20T13:31:41;1.67;;;1.40;;
16133;SDS011;8172;45.018;5.972;2022-11-20T13:36:51;1.67;;;1.30;;
16133;SDS011;8172;45.018;5.972;2022-11-20T13:42:01;1.33;;;1.23;;
16133;SDS011;8172;45.018;5.972;2022-11-20T14:02:37;3.00;;;1.40;;
16133;SDS011;8172;45.018;5.972;2022-11-20T14:07:45;1.87;;;1.30;;
16133;SDS011;8172;45.018;5.972;2022-11-20T14:12:54;2.53;;;1.30;;
16133;SDS011;8172;45.018;5.972;2022-11-20T14:18:11;2.03;;;1.17;;
16133;SDS011;8172;45.018;5.972;2022-11-20T14:23:11;1.40;;;1.30;;
16133;SDS011;8172;45.018;5.972;2022-11-20T14:28:21;1.53;;;1.30;;
16133;SDS011;8172;45.018;5.972;2022-11-20T14:33:28;2.20;;;1.80;;
16133;SDS011;8172;45.018;5.972;2022-11-20T14:38:37;1.53;;;1.43;;
16133;SDS011;8172;45.018;5.972;2022-11-20T14:43:47;2.07;;;1.33;;
16133;SDS011;8172;45.018;5.972;2022-11-20T14:48:56;1.87;;;1.37;;
16133;SDS011;8172;45.018;5.972;2022-11-20T14:54:08;1.50;;;1.37;;
16133;SDS011;8172;45.018;5.972;2022-11-20T14:59:21;1.37;;;1.27;;
16133;SDS011;8172;45.018;5.972;2022-11-20T15:04:24;1.43;;;1.30;;
16133;SDS011;8172;45.018;5.972;2022-11-20T15:09:32;1.70;;;1.43;;
16133;SDS011;8172;45.018;5.972;2022-11-20T15:14:38;1.40;;;1.23;;
16133;SDS011;8172;45.018;5.972;2022-11-20T15:19:45;4.43;;;1.80;;
16133;SDS011;8172;45.018;5.972;2022-11-20T15:24:53;2.73;;;2.00;;
16133;SDS011;8172;45.018;5.972;2022-11-20T15:30:00;3.47;;;2.20;;
16133;SDS011;8172;45.018;5.972;2022-11-20T15:35:07;5.20;;;2.40;;
16133;SDS011;8172;45.018;5.972;2022-11-20T15:40:14;3.13;;;1.80;;
16133;SDS011;8172;45.018;5.972;2022-11-20T15:45:22;1.80;;;1.40;;
16133;SDS011;8172;45.018;5.972;2022-11-20T15:50:34;2.33;;;1.30;;
16133;SDS011;8172;45.018;5.972;2022-11-20T15:55:40;1.60;;;1.30;;
16133;SDS011;8172;45.018;5.972;2022-11-20T16:00:47;2.23;;;1.17;;
16133;SDS011;8172;45.018;5.972;2022-11-20T16:05:54;2.23;;;1.60;;
16133;SDS011;8172;45.018;5.972;2022-11-20T16:11:01;5.00;;;4.50;;
16133;SDS011;8172;45.018;5.972;2022-11-20T16:16:14;4.20;;;3.80;;
16133;SDS011;8172;45.018;5.972;2022-11-20T16:21:19;2.40;;;2.10;;
16133;SDS011;8172;45.018;5.972;2022-11-20T16:26:28;2.23;;;1.63;;
16133;SDS011;8172;45.018;5.972;2022-11-20T16:31:36;2.67;;;2.20;;
16133;SDS011;8172;45.018;5.972;2022-11-20T16:36:43;2.70;;;2.50;;
16133;SDS011;8172;45.018;5.972;2022-11-20T16:41:50;2.20;;;1.57;;
16133;SDS011;8172;45.018;5.972;2022-11-20T16:46:57;2.27;;;1.73;;
16133;SDS011;8172;45.018;5.972;2022-11-20T16:52:04;3.17;;;1.73;;
16133;SDS011;8172;45.018;5.972;2022-11-20T16:57:13;3.33;;;2.40;;
16133;SDS011;8172;45.018;5.972;2022-11-20T17:02:20;2.70;;;1.67;;
16133;SDS011;8172;45.018;5.972;2022-11-20T17:07:27;3.00;;;1.60;;
16133;SDS011;8172;45.018;5.972;2022-11-20T17:12:34;2.17;;;1.70;;
16133;SDS011;8172;45.018;5.972;2022-11-20T17:17:41;2.60;;;2.10;;
16133;SDS011;8172;45.018;5.972;2022-11-20T17:22:48;2.90;;;1.73;;
16133;SDS011;8172;45.018;5.972;2022-11-20T17:27:55;2.70;;;2.10;;
16133;SDS011;8172;45.018;5.972;2022-11-20T17:33:02;1.90;;;1.50;;
16133;SDS011;8172;45.018;5.972;2022-11-20T17:38:09;17.93;;;10.00;;
16133;SDS011;8172;45.018;5.972;2022-11-20T17:43:17;2.80;;;1.80;;
16133;SDS011;8172;45.018;5.972;2022-11-20T17:48:24;7.40;;;3.70;;
16133;SDS011;8172;45.018;5.972;2022-11-20T17:53:34;3.57;;;2.57;;
16133;SDS011;8172;45.018;5.972;2022-11-20T17:58:42;11.73;;;7.13;;
16133;SDS011;8172;45.018;5.972;2022-11-20T18:03:49;5.10;;;2.87;;
16133;SDS011;8172;45.018;5.972;2022-11-20T18:08:57;3.37;;;2.63;;
16133;SDS011;8172;45.018;5.972;2022-11-20T18:14:06;2.77;;;2.20;;
16133;SDS011;8172;45.018;5.972;2022-11-20T18:19:17;3.03;;;2.10;;
16133;SDS011;8172;45.018;5.972;2022-11-20T18:24:26;2.27;;;1.80;;
16133;SDS011;8172;45.018;5.972;2022-11-20T18:29:33;5.97;;;3.60;;
16133;SDS011;8172;45.018;5.972;2022-11-20T18:34:43;2.13;;;1.90;;
16133;SDS011;8172;45.018;5.972;2022-11-20T18:39:50;4.10;;;2.20;;
16133;SDS011;8172;45.018;5.972;2022-11-20T18:44:57;5.07;;;2.90;;
16133;SDS011;8172;45.018;5.972;2022-11-20T18:50:06;2.23;;;1.57;;
16133;SDS011;8172;45.018;5.972;2022-11-20T18:55:14;1.77;;;1.33;;
16133;SDS011;8172;45.018;5.972;2022-11-20T19:00:21;1.43;;;0.90;;
16133;SDS011;8172;45.018;5.972;2022-11-20T19:05:28;1.47;;;1.00;;
16133;SDS011;8172;45.018;5.972;2022-11-20T19:10:37;0.90;;;0.70;;
16133;SDS011;8172;45.018;5.972;2022-11-20T19:15:44;1.40;;;1.10;;
16133;SDS011;8172;45.018;5.972;2022-11-20T19:20:51;36.27;;;2.30;;
16133;SDS011;8172;45.018;5.972;2022-11-20T19:25:58;1.83;;;0.90;;
16133;SDS011;8172;45.018;5.972;2022-11-20T19:31:06;1.07;;;0.90;;
16133;SDS011;8172;45.018;5.972;2022-11-20T19:41:25;1.30;;;0.90;;
16133;SDS011;8172;45.018;5.972;2022-11-20T19:46:34;1.20;;;1.10;;
16133;SDS011;8172;45.018;5.972;2022-11-20T19:51:44;2.23;;;1.20;;
16133;SDS011;8172;45.018;5.972;2022-11-20T19:56:52;1.43;;;1.20;;
16133;SDS011;8172;45.018;5.972;2022-11-20T20:01:59;1.40;;;1.30;;
16133;SDS011;8172;45.018;5.972;2022-11-20T20:07:07;1.83;;;1.00;;
16133;SDS011;8172;45.018;5.972;2022-11-20T20:12:14;1.93;;;1.30;;
16133;SDS011;8172;45.018;5.972;2022-11-20T20:17:21;1.93;;;1.33;;
16133;SDS011;8172;45.018;5.972;2022-11-20T20:22:28;2.03;;;1.30;;
16133;SDS011;8172;45.018;5.972;2022-11-20T20:27:35;1.40;;;1.20;;
16133;SDS011;8172;45.018;5.972;2022-11-20T20:32:42;1.50;;;1.37;;
16133;SDS011;8172;45.018;5.972;2022-11-20T20:37:51;3.10;;;1.43;;
16133;SDS011;8172;45.018;5.972;2022-11-20T20:42:58;1.40;;;1.30;;
16133;SDS011;8172;45.018;5.972;2022-11-20T20:48:05;2.87;;;2.40;;
16133;SDS011;8172;45.018;5.972;2022-11-20T20:53:13;5.43;;;3.40;;
16133;SDS011;8172;45.018;5.972;2022-11-20T20:58:19;5.80;;;4.13;;
16133;SDS011;8172;45.018;5.972;2022-11-20T21:03:27;9.73;;;3.00;;
16133;SDS011;8172;45.018;5.972;2022-11-20T21:13:54;2.67;;;2.20;;
16133;SDS011;8172;45.018;5.972;2022-11-20T21:19:01;3.73;;;2.50;;
16133;SDS011;8172;45.018;5.972;2022-11-20T21:24:08;2.13;;;1.60;;
16133;SDS011;8172;45.018;5.972;2022-11-20T21:29:16;1.63;;;1.20;;
16133;SDS011;8172;45.018;5.972;2022-11-20T21:34:23;1.90;;;1.40;;
16133;SDS011;8172;45.018;5.972;2022-11-20T21:39:31;2.50;;;1.80;;
16133;SDS011;8172;45.018;5.972;2022-11-20T21:44:38;3.43;;;2.90;;
16133;SDS011;8172;45.018;5.972;2022-11-20T21:49:46;3.13;;;2.03;;
16133;SDS011;8172;45.018;5.972;2022-11-20T21:54:53;2.73;;;2.47;;
16133;SDS011;8172;45.018;5.972;2022-11-20T22:00:04;3.10;;;2.10;;
16133;SDS011;8172;45.018;5.972;2022-11-20T22:05:13;2.77;;;2.10;;
16133;SDS011;8172;45.018;5.972;2022-11-20T22:10:20;3.07;;;2.43;;
16133;SDS011;8172;45.018;5.972;2022-11-20T22:15:27;4.80;;;2.40;;
16133;SDS011;8172;45.018;5.972;2022-11-20T22:20:37;14.93;;;2.87;;
16133;SDS011;8172;45.018;5.972;2022-11-20T22:25:44;3.13;;;2.23;;
16133;SDS011;8172;45.018;5.972;2022-11-20T22:30:51;3.80;;;2.70;;
16133;SDS011;8172;45.018;5.972;2022-11-20T22:36:03;3.43;;;2.90;;
16133;SDS011;8172;45.018;5.972;2022-11-20T22:41:12;3.20;;;2.83;;
16133;SDS011;8172;45.018;5.972;2022-11-20T22:46:18;2.90;;;2.60;;
16133;SDS011;8172;45.018;5.972;2022-11-20T22:51:25;11.23;;;3.27;;
16133;SDS011;8172;45.018;5.972;2022-11-20T22:56:34;3.77;;;2.67;;
16133;SDS011;8172;45.018;5.972;2022-11-20T23:01:41;4.10;;;2.50;;
16133;SDS011;8172;45.018;5.972;2022-11-20T23:06:48;2.90;;;1.93;;
16133;SDS011;8172;45.018;5.972;2022-11-20T23:11:55;3.73;;;2.30;;
16133;SDS011;8172;45.018;5.972;2022-11-20T23:17:02;2.23;;;2.03;;
16133;SDS011;8172;45.018;5.972;2022-11-20T23:22:09;2.43;;;1.90;;
16133;SDS011;8172;45.018;5.972;2022-11-20T23:27:16;4.23;;;3.67;;
16133;SDS011;8172;45.018;5.972;2022-11-20T23:32:24;2.73;;;2.20;;
16133;SDS011;8172;45.018;5.972;2022-11-20T23:37:31;2.40;;;2.07;;
16133;SDS011;8172;45.018;5.972;2022-11-20T23:42:38;4.90;;;2.90;;
16133;SDS011;8172;45.018;5.972;2022-11-20T23:47:46;7.43;;;2.43;;
16133;SDS011;8172;45.018;5.972;2022-11-20T23:52:53;54.97;;;4.17;;
16133;SDS011;8172;45.018;5.972;2022-11-20T23:58:00;4.43;;;3.20;;
